createdAt,value
2019-04-28T00:00:25.281Z,2.00
2019-04-28T00:03:10.843Z,2.27
2019-04-28T00:05:55.364Z,2.00
2019-04-28T00:08:40.066Z,1.77
2019-04-28T00:11:24.598Z,1.63
2019-04-28T00:14:11.850Z,2.07
2019-04-28T00:16:56.550Z,1.90
2019-04-28T00:19:41.060Z,1.47
2019-04-28T00:22:27.513Z,1.80
2019-04-28T00:25:13.991Z,2.10
2019-04-28T00:27:58.899Z,2.13
2019-04-28T00:30:43.532Z,1.83
2019-04-28T00:33:27.928Z,1.50
2019-04-28T00:36:12.607Z,2.10
2019-04-28T00:38:57.121Z,2.73
2019-04-28T00:41:42.159Z,2.20
2019-04-28T00:44:27.354Z,1.83
2019-04-28T00:47:12.124Z,1.67
2019-04-28T00:49:56.922Z,2.03
2019-04-28T00:52:42.010Z,2.10
2019-04-28T00:55:26.697Z,1.80
2019-04-28T00:58:11.529Z,1.93
2019-04-28T01:01:01.479Z,1.83
2019-04-28T01:03:46.168Z,1.87
2019-04-28T01:06:32.151Z,1.90
2019-04-28T01:09:18.029Z,1.77
2019-04-28T01:12:04.117Z,2.23
2019-04-28T01:14:49.748Z,2.30
2019-04-28T01:17:39.875Z,1.73
2019-04-28T01:20:25.204Z,1.67
2019-04-28T01:23:10.333Z,2.07
2019-04-28T01:25:54.896Z,1.80
2019-04-28T01:28:39.873Z,2.20
2019-04-28T01:31:35.232Z,1.70
2019-04-28T01:34:22.802Z,3.23
2019-04-28T01:37:07.394Z,1.50
2019-04-28T01:39:51.902Z,2.27
2019-04-28T01:42:36.481Z,2.00
2019-04-28T01:45:21.026Z,2.20
2019-04-28T01:48:05.498Z,2.40
2019-04-28T01:50:50.159Z,3.30
2019-04-28T01:53:34.544Z,1.87
2019-04-28T01:56:20.453Z,2.10
2019-04-28T01:59:05.266Z,1.77
2019-04-28T02:01:49.960Z,2.53
2019-04-28T02:04:34.555Z,1.83
2019-04-28T02:07:20.609Z,1.80
2019-04-28T02:10:05.443Z,1.63
2019-04-28T02:12:50.407Z,1.57
2019-04-28T02:15:35.030Z,1.97
2019-04-28T02:18:20.022Z,2.17
2019-04-28T02:21:06.558Z,2.13
2019-04-28T02:23:51.529Z,1.70
2019-04-28T02:26:35.947Z,1.87
2019-04-28T02:29:20.565Z,2.10
2019-04-28T02:32:07.124Z,2.33
2019-04-28T02:34:51.746Z,1.60
2019-04-28T02:37:36.366Z,1.70
2019-04-28T02:40:21.081Z,1.87
2019-04-28T02:43:05.989Z,1.77
2019-04-28T02:45:53.477Z,1.93
2019-04-28T02:48:40.330Z,2.13
2019-04-28T02:51:26.552Z,2.27
2019-04-28T02:54:11.453Z,2.07
2019-04-28T02:56:56.253Z,2.33
2019-04-28T02:59:44.683Z,2.00
2019-04-28T03:02:28.028Z,2.17
2019-04-28T03:05:13.176Z,2.03
2019-04-28T03:07:57.839Z,1.90
2019-04-28T03:10:42.756Z,2.67
2019-04-28T03:13:30.903Z,2.10
2019-04-28T03:16:14.734Z,2.70
2019-04-28T03:19:01.285Z,3.07
2019-04-28T03:21:46.970Z,1.90
2019-04-28T03:24:31.980Z,1.83
2019-04-28T03:27:35.392Z,1.70
2019-04-28T03:30:43.361Z,2.20
2019-04-28T03:33:27.541Z,1.73
2019-04-28T03:36:15.556Z,2.13
2019-04-28T03:39:00.699Z,1.53
2019-04-28T03:41:45.901Z,2.80
2019-04-28T03:44:33.634Z,2.03
2019-04-28T03:47:21.131Z,2.10
2019-04-28T03:50:05.627Z,2.50
2019-04-28T03:52:51.161Z,3.33
2019-04-28T03:55:36.446Z,2.57
2019-04-28T03:58:24.303Z,2.27
2019-04-28T04:01:10.870Z,2.40
2019-04-28T04:03:55.284Z,2.90
2019-04-28T04:06:40.868Z,2.80
2019-04-28T04:09:27.821Z,2.70
2019-04-28T04:12:14.544Z,2.20
2019-04-28T04:15:03.861Z,2.43
2019-04-28T04:18:01.586Z,2.50
2019-04-28T04:20:46.481Z,3.33
2019-04-28T04:23:31.252Z,2.50
2019-04-28T04:26:16.185Z,2.20
2019-04-28T04:29:01.196Z,2.40
2019-04-28T04:31:46.292Z,2.40
2019-04-28T04:34:31.030Z,2.80
2019-04-28T04:37:15.857Z,2.27
2019-04-28T04:40:01.657Z,2.93
2019-04-28T04:42:46.736Z,2.77
2019-04-28T04:45:31.653Z,2.63
2019-04-28T04:48:16.545Z,2.70
2019-04-28T04:51:01.401Z,2.80
2019-04-28T04:53:46.148Z,3.10
2019-04-28T04:56:30.867Z,2.83
2019-04-28T04:59:15.770Z,2.77
2019-04-28T05:02:05.498Z,3.20
2019-04-28T05:04:52.336Z,3.27
2019-04-28T05:07:37.373Z,2.47
2019-04-28T05:10:22.008Z,3.03
2019-04-28T05:13:06.968Z,3.33
2019-04-28T05:15:52.674Z,2.83
2019-04-28T05:18:37.393Z,3.47
2019-04-28T05:21:22.242Z,3.20
2019-04-28T05:24:20.809Z,3.63
2019-04-28T05:27:05.518Z,4.33
2019-04-28T05:29:51.346Z,3.27
2019-04-28T05:32:44.672Z,3.03
2019-04-28T05:35:25.062Z,2.73
2019-04-28T05:38:09.953Z,3.30
2019-04-28T05:40:54.710Z,3.00
2019-04-28T05:43:40.397Z,3.10
2019-04-28T05:46:25.368Z,2.73
2019-04-28T05:49:30.231Z,3.43
2019-04-28T05:52:33.929Z,4.00
2019-04-28T05:55:23.478Z,2.87
2019-04-28T05:58:13.379Z,3.00
2019-04-28T06:01:02.669Z,3.20
2019-04-28T06:03:49.568Z,3.23
2019-04-28T06:06:36.538Z,3.30
2019-04-28T06:09:23.510Z,3.37
2019-04-28T06:12:10.414Z,3.63
2019-04-28T06:14:55.432Z,3.23
2019-04-28T06:17:40.579Z,3.07
2019-04-28T06:20:25.391Z,3.10
2019-04-28T06:23:10.305Z,2.30
2019-04-28T06:25:55.196Z,2.60
2019-04-28T06:28:40.133Z,2.50
2019-04-28T06:31:24.936Z,2.20
2019-04-28T06:34:09.791Z,2.90
2019-04-28T06:36:54.634Z,2.57
2019-04-28T06:39:39.443Z,3.70
2019-04-28T06:42:24.445Z,2.20
2019-04-28T06:45:09.465Z,2.83
2019-04-28T06:47:54.223Z,2.83
2019-04-28T06:50:39.142Z,2.23
2019-04-28T06:53:24.020Z,2.13
2019-04-28T06:56:17.967Z,2.17
2019-04-28T06:59:02.763Z,2.83
2019-04-28T07:01:48.382Z,2.67
2019-04-28T07:04:33.298Z,3.27
2019-04-28T07:07:18.026Z,2.80
2019-04-28T07:10:06.258Z,3.17
2019-04-28T07:12:50.564Z,2.40
2019-04-28T07:15:35.100Z,1.90
2019-04-28T07:18:19.708Z,2.43
2019-04-28T07:21:18.156Z,2.57
2019-04-28T07:24:02.715Z,2.97
2019-04-28T07:26:47.035Z,2.40
2019-04-28T07:29:31.796Z,2.43
2019-04-28T07:32:16.342Z,2.80
2019-04-28T07:35:01.792Z,2.30
2019-04-28T07:37:46.795Z,2.77
2019-04-28T07:40:32.276Z,2.60
2019-04-28T07:43:16.957Z,3.30
2019-04-28T07:46:01.818Z,2.47
2019-04-28T07:48:46.613Z,2.70
2019-04-28T07:51:48.548Z,2.50
2019-04-28T07:54:33.437Z,2.40
2019-04-28T07:57:18.130Z,2.47
2019-04-28T08:00:05.009Z,2.30
2019-04-28T08:02:49.746Z,2.30
2019-04-28T08:05:34.508Z,2.47
2019-04-28T08:08:19.443Z,2.03
2019-04-28T08:11:04.379Z,2.17
2019-04-28T08:13:49.430Z,2.40
2019-04-28T08:16:34.063Z,2.07
2019-04-28T08:19:19.288Z,2.20
2019-04-28T08:22:03.736Z,2.10
2019-04-28T08:24:48.613Z,2.37
2019-04-28T08:27:33.487Z,1.97
2019-04-28T08:30:18.280Z,1.93
2019-04-28T08:33:07.613Z,2.00
2019-04-28T08:35:52.341Z,1.80
2019-04-28T08:38:37.196Z,1.60
2019-04-28T08:41:21.954Z,1.90
2019-04-28T08:44:06.926Z,1.73
2019-04-28T08:46:51.956Z,1.97
2019-04-28T08:49:36.718Z,1.70
2019-04-28T08:52:21.750Z,1.90
2019-04-28T08:55:07.089Z,1.90
2019-04-28T08:57:51.715Z,2.37
2019-04-28T09:00:36.204Z,1.73
2019-04-28T09:03:20.890Z,1.33
2019-04-28T09:06:05.384Z,2.07
2019-04-28T09:08:50.079Z,2.00
2019-04-28T09:11:34.391Z,1.90
2019-04-28T09:14:19.322Z,1.80
2019-04-28T09:17:04.068Z,1.97
2019-04-28T09:19:49.088Z,1.93
2019-04-28T09:22:34.096Z,1.37
2019-04-28T09:25:18.891Z,1.87
2019-04-28T09:28:03.913Z,2.00
2019-04-28T09:30:48.752Z,2.10
2019-04-28T09:33:33.750Z,1.90
2019-04-28T09:36:18.508Z,2.50
2019-04-28T09:39:05.344Z,2.03
2019-04-28T09:41:57.802Z,2.50
2019-04-28T09:44:42.676Z,1.90
2019-04-28T09:47:27.701Z,2.40
2019-04-28T09:50:12.577Z,2.53
2019-04-28T09:52:57.218Z,2.10
2019-04-28T09:55:42.171Z,1.97
2019-04-28T09:58:27.060Z,2.00
2019-04-28T10:01:11.786Z,2.40
2019-04-28T10:03:56.614Z,2.10
2019-04-28T10:06:41.356Z,2.50
2019-04-28T10:09:26.634Z,2.20
2019-04-28T10:12:11.608Z,2.10
2019-04-28T10:14:56.516Z,2.50
2019-04-28T10:17:41.507Z,2.40
2019-04-28T10:20:26.368Z,2.50
2019-04-28T10:23:11.386Z,1.67
2019-04-28T10:25:55.981Z,1.97
2019-04-28T10:28:40.971Z,1.83
2019-04-28T10:31:25.689Z,2.10
2019-04-28T10:34:10.884Z,2.43
2019-04-28T10:36:55.595Z,2.10
2019-04-28T10:39:42.512Z,2.17
2019-04-28T10:42:27.499Z,1.77
2019-04-28T10:45:14.504Z,1.70
2019-04-28T10:47:59.634Z,2.40
2019-04-28T10:50:44.819Z,1.90
2019-04-28T10:53:29.461Z,2.10
2019-04-28T10:56:14.396Z,1.30
2019-04-28T10:59:00.152Z,2.00
2019-04-28T11:01:45.212Z,1.93
2019-04-28T11:04:41.041Z,2.37
2019-04-28T11:07:25.864Z,2.20
2019-04-28T11:10:15.312Z,2.10
2019-04-28T11:13:00.203Z,2.50
2019-04-28T11:15:44.817Z,2.07
2019-04-28T11:18:29.582Z,2.27
2019-04-28T11:21:14.385Z,2.47
2019-04-28T11:23:59.441Z,2.40
2019-04-28T11:26:44.209Z,1.83
2019-04-28T11:29:29.126Z,2.57
2019-04-28T11:32:15.058Z,2.30
2019-04-28T11:35:20.628Z,2.63
2019-04-28T11:38:00.297Z,2.37
2019-04-28T11:40:45.231Z,1.93
2019-04-28T11:43:29.882Z,2.20
2019-04-28T11:46:16.321Z,2.30
2019-04-28T11:49:01.301Z,2.13
2019-04-28T11:51:45.780Z,2.72
2019-04-28T11:54:30.365Z,1.90
2019-04-28T11:57:15.193Z,2.65
2019-04-28T11:59:59.592Z,2.00
2019-04-28T12:02:44.475Z,2.27
2019-04-28T12:05:34.676Z,2.47
2019-04-28T12:08:17.464Z,2.05
2019-04-28T12:11:20.893Z,2.20
2019-04-28T12:14:07.354Z,2.40
2019-04-28T12:16:54.313Z,2.33
2019-04-28T12:19:41.339Z,2.33
2019-04-28T12:22:26.172Z,2.52
2019-04-28T12:25:11.251Z,2.30
2019-04-28T12:27:55.782Z,2.00
2019-04-28T12:30:40.848Z,2.12
2019-04-28T12:33:26.123Z,1.92
2019-04-28T12:36:11.153Z,2.35
2019-04-28T12:38:56.042Z,1.80
2019-04-28T12:41:40.954Z,2.47
2019-04-28T12:44:25.916Z,2.30
2019-04-28T12:47:10.728Z,1.57
2019-04-28T12:49:57.587Z,1.80
2019-04-28T12:52:42.487Z,1.85
2019-04-28T12:55:27.447Z,2.10
2019-04-28T12:58:12.418Z,2.12
2019-04-28T13:00:59.270Z,2.55
2019-04-28T13:03:46.188Z,1.87
2019-04-28T13:06:31.453Z,2.12
2019-04-28T13:09:16.182Z,2.67
2019-04-28T13:12:01.370Z,2.62
2019-04-28T13:14:45.906Z,2.12
2019-04-28T13:17:30.879Z,2.10
2019-04-28T13:20:15.936Z,2.20
2019-04-28T13:23:00.889Z,2.52
2019-04-28T13:25:46.353Z,3.20
2019-04-28T13:28:31.327Z,3.05
2019-04-28T13:31:16.162Z,2.58
2019-04-28T13:34:01.648Z,2.87
2019-04-28T13:36:46.354Z,3.70
2019-04-28T13:39:38.875Z,3.33
2019-04-28T13:42:23.939Z,2.77
2019-04-28T13:45:11.315Z,2.33
2019-04-28T13:47:56.724Z,3.02
2019-04-28T13:50:41.700Z,2.75
2019-04-28T13:53:26.686Z,2.60
2019-04-28T13:56:11.717Z,2.42
2019-04-28T13:58:58.565Z,2.47
2019-04-28T14:01:45.661Z,2.20
2019-04-28T14:04:41.131Z,2.58
2019-04-28T14:07:25.966Z,2.22
2019-04-28T14:10:11.166Z,2.25
2019-04-28T14:12:56.143Z,2.30
2019-04-28T14:15:40.780Z,2.40
2019-04-28T14:18:25.520Z,2.83
2019-04-28T14:21:10.362Z,4.40
2019-04-28T14:23:55.282Z,4.87
2019-04-28T14:26:40.300Z,4.63
2019-04-28T14:29:25.419Z,4.43
2019-04-28T14:32:10.454Z,4.33
2019-04-28T14:34:55.557Z,3.93
2019-04-28T14:37:40.682Z,3.93
2019-04-28T14:40:25.322Z,3.30
2019-04-28T14:43:10.190Z,3.23
2019-04-28T14:45:54.983Z,3.40
2019-04-28T14:48:39.858Z,2.70
2019-04-28T14:51:24.704Z,2.00
2019-04-28T14:54:09.767Z,2.40
2019-04-28T14:56:54.993Z,2.43
2019-04-28T14:59:39.740Z,2.33
2019-04-28T15:02:38.723Z,2.63
2019-04-28T15:05:42.208Z,2.13
2019-04-28T15:08:28.947Z,2.03
2019-04-28T15:11:24.761Z,2.10
2019-04-28T15:14:09.607Z,2.20
2019-04-28T15:16:54.637Z,1.97
2019-04-28T15:19:39.402Z,2.03
2019-04-28T15:22:24.222Z,2.10
2019-04-28T15:25:09.349Z,2.27
2019-04-28T15:27:54.749Z,1.53
2019-04-28T15:30:39.431Z,2.03
2019-04-28T15:33:24.309Z,2.13
2019-04-28T15:36:09.120Z,1.90
2019-04-28T15:38:53.810Z,5.07
2019-04-28T15:41:38.718Z,3.70
2019-04-28T15:44:23.680Z,2.83
2019-04-28T15:47:08.447Z,2.93
2019-04-28T15:49:53.254Z,2.40
2019-04-28T15:52:38.282Z,2.73
2019-04-28T15:55:40.351Z,2.43
2019-04-28T15:58:28.298Z,2.57
2019-04-28T16:01:13.314Z,2.40
2019-04-28T16:03:58.169Z,2.50
2019-04-28T16:06:43.102Z,2.53
2019-04-28T16:09:27.959Z,2.73
2019-04-28T16:12:12.956Z,2.90
2019-04-28T16:14:57.749Z,3.63
2019-04-28T16:17:42.725Z,3.33
2019-04-28T16:20:29.720Z,2.90
2019-04-28T16:23:14.358Z,3.67
2019-04-28T16:25:59.187Z,4.33
2019-04-28T16:28:43.960Z,3.33
2019-04-28T16:31:28.965Z,3.27
2019-04-28T16:34:13.639Z,2.80
2019-04-28T16:36:58.491Z,3.10
2019-04-28T16:39:43.238Z,3.13
2019-04-28T16:42:28.247Z,2.57
2019-04-28T16:45:13.215Z,2.53
2019-04-28T16:47:58.055Z,2.23
2019-04-28T16:50:43.221Z,2.63
2019-04-28T16:53:28.049Z,2.40
2019-04-28T16:56:15.034Z,2.17
2019-04-28T16:59:18.366Z,2.40
2019-04-28T17:02:08.157Z,2.50
2019-04-28T17:04:52.895Z,2.50
2019-04-28T17:07:37.857Z,2.60
2019-04-28T17:10:22.708Z,2.63
2019-04-28T17:13:08.007Z,2.73
2019-04-28T17:15:52.584Z,2.80
2019-04-28T17:18:37.467Z,2.87
2019-04-28T17:21:22.170Z,2.90
2019-04-28T17:24:06.970Z,3.63
2019-04-28T17:26:51.799Z,3.67
2019-04-28T17:29:38.007Z,3.70
2019-04-28T17:32:23.282Z,3.73
2019-04-28T17:35:08.307Z,3.73
2019-04-28T17:38:05.831Z,3.00
2019-04-28T17:40:39.812Z,3.40
2019-04-28T17:43:24.560Z,2.90
2019-04-28T17:46:09.527Z,3.27
2019-04-28T17:48:56.507Z,3.83
2019-04-28T17:51:41.710Z,2.80
2019-04-28T17:54:26.362Z,3.43
2019-04-28T17:57:11.201Z,3.67
2019-04-28T17:59:57.796Z,3.83
2019-04-28T18:02:47.870Z,3.80
2019-04-28T18:05:34.680Z,3.80
2019-04-28T18:08:21.103Z,3.73
2019-04-28T18:11:06.099Z,3.17
2019-04-28T18:13:51.131Z,3.47
2019-04-28T18:16:40.422Z,3.53
2019-04-28T18:19:26.359Z,3.50
2019-04-28T18:22:10.992Z,3.47
2019-04-28T18:24:55.755Z,3.33
2019-04-28T18:27:40.774Z,2.67
2019-04-28T18:30:27.512Z,3.40
2019-04-28T18:33:32.498Z,3.80
2019-04-28T18:36:19.398Z,3.20
2019-04-28T18:39:07.812Z,3.07
2019-04-28T18:41:54.300Z,2.37
2019-04-28T18:44:39.220Z,2.93
2019-04-28T18:47:24.136Z,2.60
2019-04-28T18:50:09.458Z,4.70
2019-04-28T18:52:54.550Z,2.97
2019-04-28T18:55:39.367Z,3.53
2019-04-28T18:58:24.424Z,2.77
2019-04-28T19:01:11.189Z,2.63
2019-04-28T19:03:56.322Z,2.97
2019-04-28T19:06:41.287Z,3.10
2019-04-28T19:09:30.894Z,2.83
2019-04-28T19:12:23.467Z,2.83
2019-04-28T19:15:12.902Z,3.20
2019-04-28T19:18:02.512Z,2.97
2019-04-28T19:20:47.197Z,2.90
2019-04-28T19:23:31.882Z,2.77
2019-04-28T19:26:16.677Z,2.87
2019-04-28T19:29:01.583Z,2.77
2019-04-28T19:31:46.530Z,3.00
2019-04-28T19:34:31.648Z,2.83
2019-04-28T19:37:16.529Z,2.90
2019-04-28T19:40:03.610Z,2.47
2019-04-28T19:42:48.494Z,2.53
2019-04-28T19:45:35.260Z,2.93
2019-04-28T19:48:20.283Z,2.37
2019-04-28T19:51:05.312Z,2.73
2019-04-28T19:53:50.505Z,2.17
2019-04-28T19:56:40.041Z,2.73
2019-04-28T19:59:43.362Z,2.80
2019-04-28T20:02:30.086Z,2.40
2019-04-28T20:05:15.275Z,2.73
2019-04-28T20:08:00.152Z,2.60
2019-04-28T20:10:44.977Z,2.70
2019-04-28T20:13:31.418Z,3.10
2019-04-28T20:16:16.664Z,2.80
2019-04-28T20:19:01.537Z,2.73
2019-04-28T20:21:46.390Z,2.73
2019-04-28T20:24:31.295Z,2.43
2019-04-28T20:27:16.163Z,2.53
2019-04-28T20:30:00.945Z,2.87
2019-04-28T20:32:46.233Z,2.87
2019-04-28T20:35:33.089Z,3.00
2019-04-28T20:38:20.156Z,2.67
2019-04-28T20:41:06.916Z,2.10
2019-04-28T20:43:53.033Z,3.13
2019-04-28T20:46:38.015Z,2.80
2019-04-28T20:49:22.846Z,2.93
2019-04-28T20:52:07.849Z,3.30
2019-04-28T20:54:52.875Z,2.80
2019-04-28T20:57:37.640Z,2.40
2019-04-28T21:00:22.637Z,3.13
2019-04-28T21:03:07.311Z,2.70
2019-04-28T21:05:52.184Z,2.80
2019-04-28T21:08:37.242Z,2.83
2019-04-28T21:11:22.166Z,3.10
2019-04-28T21:14:07.052Z,2.43
2019-04-28T21:16:52.266Z,2.53
2019-04-28T21:19:37.069Z,2.53
2019-04-28T21:22:21.804Z,2.33
2019-04-28T21:25:06.885Z,2.23
2019-04-28T21:27:51.551Z,2.47
2019-04-28T21:30:36.373Z,3.27
2019-04-28T21:33:21.383Z,2.87
2019-04-28T21:36:06.199Z,2.73
2019-04-28T21:38:51.109Z,2.60
2019-04-28T21:41:36.080Z,2.87
2019-04-28T21:44:25.724Z,2.90
2019-04-28T21:47:15.269Z,3.17
2019-04-28T21:49:59.945Z,3.00
2019-04-28T21:52:44.761Z,2.53
2019-04-28T21:55:29.545Z,2.83
2019-04-28T21:58:14.537Z,2.57
2019-04-28T22:01:00.679Z,2.47
2019-04-28T22:03:45.492Z,2.70
2019-04-28T22:06:30.295Z,3.03
2019-04-28T22:09:15.618Z,2.83
2019-04-28T22:12:00.507Z,2.40
2019-04-28T22:14:45.395Z,2.53
2019-04-28T22:17:30.161Z,3.37
2019-04-28T22:20:15.156Z,2.50
2019-04-28T22:23:02.125Z,2.67
2019-04-28T22:25:47.220Z,2.10
2019-04-28T22:28:32.074Z,2.97
2019-04-28T22:31:16.845Z,2.27
2019-04-28T22:34:01.808Z,2.50
2019-04-28T22:36:46.946Z,2.30
2019-04-28T22:39:31.667Z,2.73
2019-04-28T22:42:16.652Z,2.70
2019-04-28T22:45:02.473Z,3.10
2019-04-28T22:47:47.337Z,2.37
2019-04-28T22:50:38.299Z,3.07
2019-04-28T22:53:24.965Z,2.67
2019-04-28T22:56:23.915Z,3.40
2019-04-28T22:59:10.616Z,2.60
2019-04-28T23:02:20.040Z,3.03
2019-04-28T23:05:07.624Z,2.43
2019-04-28T23:07:52.455Z,3.10
2019-04-28T23:10:37.232Z,2.93
2019-04-28T23:13:22.058Z,3.40
2019-04-28T23:16:07.200Z,2.63
2019-04-28T23:18:52.457Z,2.27
2019-04-28T23:21:39.214Z,2.40
2019-04-28T23:24:23.903Z,3.53
2019-04-28T23:27:08.325Z,2.80
2019-04-28T23:29:52.998Z,3.10
2019-04-28T23:32:37.504Z,2.50
2019-04-28T23:35:24.551Z,2.67
2019-04-28T23:38:08.597Z,2.70
2019-04-28T23:40:55.159Z,2.27
2019-04-28T23:43:39.925Z,3.27
2019-04-28T23:46:26.614Z,2.73
2019-04-28T23:49:11.701Z,2.30
2019-04-28T23:52:04.443Z,2.30
2019-04-28T23:54:50.970Z,3.30
2019-04-28T23:57:36.024Z,3.20
